Atlantic Beach, South Carolina
Current Conditions -  °F | °C
As of 3:53 PM on Tuesday 27 Jan 2015 (Local Time) from KCRE Reporting Station
Clear Clear  
Wind Chill: 42°   Ceiling: Unl
Heat Index: 47°   Visibility: 10mi
Dew Point: 21°   Wind: 10mph
Humidity: 36%   Direction: 300°WNW
Pressure: 29.83"   Gusts: 17mph
Location:  33.8371°N, 78.6471°W
Report Text: KCRE 272053Z 30009G15KT 270V350 10SM CLR 08/M06 A2983 RMK AO1 SLP101 T00831061 53008
Loading
Personal Weather Stations






























Interactive Weather Map New forecast layout! Learn more

10-Day Weather Forecast

Advertisements
Track Severe Weather on mobile